createdAt,value
2019-06-20T08:24:59.840Z,100408.85
2019-06-20T08:25:59.146Z,100411.66
2019-06-20T08:26:59.111Z,100412.79
2019-06-20T08:27:59.367Z,100412.17
2019-06-20T08:29:59.718Z,100409.64
2019-06-20T08:30:59.326Z,100405.2
2019-06-20T08:31:59.695Z,100403.36
2019-06-20T08:33:00.107Z,100410.32
2019-06-20T08:33:59.180Z,100405.92
2019-06-20T08:34:59.370Z,100406.48
2019-06-20T08:35:59.194Z,100405.51
2019-06-20T08:36:59.192Z,100408.64
2019-06-20T08:37:59.571Z,100404.94
2019-06-20T08:38:59.021Z,100403.25
2019-06-20T08:39:58.813Z,100401.76
2019-06-20T08:40:58.907Z,100402.32
2019-06-20T08:41:59.131Z,100405.2
2019-06-20T08:42:58.790Z,100400.64
2019-06-20T08:43:58.655Z,100403.57
2019-06-20T08:44:58.338Z,100401.87
2019-06-20T08:45:58.347Z,100408.8
2019-06-20T08:46:59.157Z,100414.6
2019-06-20T08:47:58.844Z,100406.87
2019-06-20T08:48:58.194Z,100415.63
2019-06-20T08:49:58.383Z,100415.28
2019-06-20T08:50:58.903Z,100403.4
2019-06-20T08:51:57.978Z,100405
2019-06-20T08:52:58.423Z,100400.87
2019-06-20T08:53:58.063Z,100406.01
2019-06-20T08:54:58.187Z,100404.81
2019-06-20T08:55:58.061Z,100409.94
2019-06-20T08:56:57.718Z,100412.7
2019-06-20T08:57:58.034Z,100404.49
2019-06-20T08:58:57.286Z,100404.92
2019-06-20T08:59:57.627Z,100408.38
2019-06-20T09:00:57.577Z,100407.12
2019-06-20T09:01:58.590Z,100405.37
2019-06-20T09:02:57.227Z,100403.15
2019-06-20T09:03:57.308Z,100403.18
2019-06-20T09:04:56.812Z,100406.28
2019-06-20T09:05:56.908Z,100401.33
2019-06-20T09:06:57.456Z,100401.56
2019-06-20T09:07:57.085Z,100403.03
2019-06-20T09:08:57.003Z,100407.29
2019-06-20T09:09:56.323Z,100402.71
2019-06-20T09:10:56.182Z,100401.81
2019-06-20T09:11:57.124Z,100405.24
2019-06-20T09:12:55.825Z,100405.75
2019-06-20T09:13:55.815Z,100411.58
2019-06-20T09:14:55.667Z,100408.1
2019-06-20T09:15:55.500Z,100418.42
2019-06-20T09:16:55.322Z,100422.02
2019-06-20T09:17:55.587Z,100410.23
2019-06-20T09:18:55.283Z,100412.61
2019-06-20T09:19:54.768Z,100413.14
2019-06-20T09:20:54.690Z,100415.67
2019-06-20T09:21:54.586Z,100417.98
2019-06-20T09:22:55.546Z,100416.64
2019-06-20T09:23:54.522Z,100417.56
2019-06-20T09:24:55.450Z,100418.14
2019-06-20T09:25:56.303Z,100417.56
2019-06-20T09:26:54.274Z,100416.29
2019-06-20T09:27:54.870Z,100419.06
2019-06-20T09:28:54.345Z,100425.95
2019-06-20T09:29:55.004Z,100421.75
2019-06-20T09:30:53.863Z,100418.57
2019-06-20T09:31:54.481Z,100420.56
2019-06-20T09:32:54.449Z,100424.01
2019-06-20T09:33:54.445Z,100418.45
2019-06-20T09:34:53.288Z,100422.91
2019-06-20T09:35:54.234Z,100422.82
2019-06-20T09:36:53.991Z,100418.1
2019-06-20T09:37:54.046Z,100420.31
2019-06-20T09:38:53.934Z,100411.77
2019-06-20T09:39:53.647Z,100418.07
2019-06-20T09:40:53.598Z,100415.73
2019-06-20T09:41:53.327Z,100413
2019-06-20T09:42:53.311Z,100417.95
2019-06-20T09:43:53.137Z,100418.96
2019-06-20T09:44:52.997Z,100418.06
2019-06-20T09:45:53.069Z,100416.69
2019-06-20T09:46:52.775Z,100416
2019-06-20T09:47:52.580Z,100417.9
2019-06-20T09:48:52.709Z,100413.06
2019-06-20T09:49:54.050Z,100416.25
2019-06-20T09:50:51.472Z,100418.81
2019-06-20T09:51:50.935Z,100425.1
2019-06-20T09:52:51.949Z,100421.67
2019-06-20T09:53:50.614Z,100425.67
2019-06-20T09:54:50.536Z,100428.57
2019-06-20T09:55:50.454Z,100428.53
2019-06-20T09:56:52.099Z,100428.62
2019-06-20T09:57:50.735Z,100429.73
2019-06-20T09:58:49.896Z,100430.42
2019-06-20T10:00:49.601Z,100431.17
2019-06-20T10:01:49.886Z,100434.12
2019-06-20T10:02:50.609Z,100434.21
2019-06-20T10:03:49.255Z,100438.48
2019-06-20T10:04:49.457Z,100443.5
2019-06-20T10:05:49.248Z,100440.9
2019-06-20T10:06:48.961Z,100444.07
2019-06-20T10:07:48.956Z,100441.82
2019-06-20T10:08:48.814Z,100441.17
2019-06-20T10:09:48.603Z,100450.11
2019-06-20T10:10:49.256Z,100451.67
2019-06-20T10:11:48.475Z,100451.12
2019-06-20T10:12:48.374Z,100450.73
2019-06-20T10:13:50.849Z,100449.24
2019-06-20T10:14:48.407Z,100453.18
2019-06-20T10:15:48.229Z,100453.16
2019-06-20T10:16:50.869Z,100452.89
2019-06-20T10:17:47.334Z,100453.25
2019-06-20T10:18:48.953Z,100456.71
2019-06-20T10:19:48.709Z,100453.14
2019-06-20T10:20:47.595Z,100449.26
2019-06-20T10:21:48.408Z,100453.5
2019-06-20T10:22:47.294Z,100454.82
2019-06-20T10:23:48.490Z,100456.12
2019-06-20T10:24:47.997Z,100454.9
2019-06-20T10:25:48.123Z,100453.39
2019-06-20T10:26:48.263Z,100454.37
2019-06-20T10:27:48.249Z,100458.39
2019-06-20T10:28:48.001Z,100455.31
2019-06-20T10:29:47.794Z,100456.03
2019-06-20T10:30:47.612Z,100459.34
2019-06-20T10:31:47.794Z,100462.14
2019-06-20T10:32:47.311Z,100462.01
2019-06-20T10:33:47.273Z,100462.29
2019-06-20T10:34:47.194Z,100462.03
2019-06-20T10:35:47.232Z,100462.42
2019-06-20T10:36:46.927Z,100464.46
2019-06-20T10:37:47.116Z,100463.2
2019-06-20T10:38:46.879Z,100463.18
2019-06-20T10:39:46.610Z,100458.3
2019-06-20T10:40:46.695Z,100461.12
2019-06-20T10:41:47.068Z,100466.03
2019-06-20T10:42:46.815Z,100465.65
2019-06-20T10:43:46.400Z,100467.75
2019-06-20T10:44:46.502Z,100472.5
2019-06-20T10:45:46.171Z,100468.38
2019-06-20T10:46:46.066Z,100468.1
2019-06-20T10:47:45.700Z,100464.95
2019-06-20T10:48:44.739Z,100467.92
2019-06-20T10:49:44.985Z,100469.29
2019-06-20T10:50:44.349Z,100473
2019-06-20T10:51:44.602Z,100473.28
2019-06-20T10:52:44.069Z,100475.08
2019-06-20T10:53:45.947Z,100471.42
2019-06-20T10:54:43.769Z,100474.98
2019-06-20T10:55:43.770Z,100479.23
2019-06-20T10:56:44.017Z,100482.21
2019-06-20T10:57:43.327Z,100476.9
2019-06-20T10:58:43.408Z,100475.03
2019-06-20T10:59:43.119Z,100473.18
2019-06-20T11:00:43.324Z,100472.37
2019-06-20T11:01:43.087Z,100475.85
2019-06-20T11:02:43.748Z,100478.34
2019-06-20T11:03:42.465Z,100480.61
2019-06-20T11:04:42.706Z,100479.04
2019-06-20T11:05:42.523Z,100478.35
2019-06-20T11:06:42.051Z,100477.93
2019-06-20T11:07:42.411Z,100477.12
2019-06-20T11:08:42.097Z,100480.52
2019-06-20T11:09:41.715Z,100476.46
2019-06-20T11:10:42.156Z,100474.03
2019-06-20T11:11:41.710Z,100469.54
2019-06-20T11:13:41.057Z,100467.25
2019-06-20T11:14:40.871Z,100473.34
2019-06-20T11:15:40.905Z,100470.65
2019-06-20T11:16:42.084Z,100472.64
2019-06-20T11:17:40.710Z,100470.93
2019-06-20T11:18:40.281Z,100469.25
2019-06-20T11:19:40.263Z,100470.45
2019-06-20T11:20:41.319Z,100474.53
2019-06-20T11:21:40.121Z,100473.82
2019-06-20T11:22:40.153Z,100476.14
2019-06-20T11:23:39.681Z,100478.29
2019-06-20T11:24:39.699Z,100474.62
2019-06-20T11:25:40.583Z,100476.77
2019-06-20T11:26:39.856Z,100476.76
2019-06-20T11:27:39.283Z,100473.56
2019-06-20T11:28:40.168Z,100469.17
2019-06-20T11:31:43.325Z,100465.97
2019-06-20T11:32:39.834Z,100470.22
2019-06-20T11:33:38.939Z,100464.21
2019-06-20T11:34:41.079Z,100470.21
2019-06-20T11:35:38.128Z,100466.92
2019-06-20T11:36:39.081Z,100474.83
2019-06-20T11:37:38.469Z,100462.2
2019-06-20T11:38:41.290Z,100469.3
2019-06-20T11:39:37.723Z,100463.61
2019-06-20T11:40:38.512Z,100465.78
2019-06-20T11:41:38.331Z,100465.94
2019-06-20T11:42:38.618Z,100461.82
2019-06-20T11:43:36.797Z,100463.76
2019-06-20T11:44:37.742Z,100464.84
2019-06-20T11:45:37.599Z,100463.39
2019-06-20T11:46:37.374Z,100463.46
2019-06-20T11:47:37.046Z,100458.89
2019-06-20T11:48:37.247Z,100457.39
2019-06-20T11:49:37.045Z,100460.96
2019-06-20T11:50:36.593Z,100460.3
2019-06-20T11:51:36.421Z,100462.09
2019-06-20T11:52:38.479Z,100460.5
2019-06-20T11:53:35.228Z,100453.68
2019-06-20T11:54:34.854Z,100463.2
2019-06-20T12:01:41.541Z,100467.1
2019-06-20T12:02:42.645Z,100459.71
2019-06-20T12:03:41.291Z,100454.06
2019-06-20T12:04:41.751Z,100455.26
2019-06-20T12:05:41.811Z,100454.15
2019-06-20T12:06:41.774Z,100456.06
2019-06-20T12:07:42.038Z,100454.24
2019-06-20T12:08:41.248Z,100454.4
2019-06-20T12:09:42.762Z,100451.89
2019-06-20T12:10:41.791Z,100454.55
2019-06-20T12:11:41.245Z,100448.56
2019-06-20T12:12:41.328Z,100456.42
2019-06-20T12:13:40.958Z,100457.92
2019-06-20T12:14:41.333Z,100451.31
2019-06-20T12:15:41.528Z,100449.57
2019-06-20T12:16:41.285Z,100446.65
2019-06-20T12:17:41.674Z,100452.07
2019-06-20T12:18:41.831Z,100444.99
2019-06-20T12:19:41.248Z,100439.29
2019-06-20T12:20:41.477Z,100445.6
2019-06-20T12:21:41.267Z,100445.33
2019-06-20T12:22:41.663Z,100443.6
2019-06-20T12:23:41.386Z,100447.41
2019-06-20T12:24:41.604Z,100445.89
2019-06-20T12:25:41.312Z,100441.57
2019-06-20T12:26:41.098Z,100442.42
2019-06-20T12:27:41.645Z,100449.19
2019-06-20T12:28:41.092Z,100448
2019-06-20T12:29:40.969Z,100443.03
2019-06-20T12:30:41.994Z,100443.96
2019-06-20T12:31:44.392Z,100447.08
2019-06-20T12:32:43.253Z,100444.24
2019-06-20T12:33:41.402Z,100440.59
2019-06-20T12:34:40.929Z,100439.89
2019-06-20T12:35:41.267Z,100442.35
2019-06-20T12:36:41.268Z,100445.38
2019-06-20T12:37:43.746Z,100449.64
2019-06-20T12:38:42.114Z,100447.45
2019-06-20T12:39:41.025Z,100442.57
2019-06-20T12:40:41.170Z,100441.48
2019-06-20T12:41:42.041Z,100441.86
2019-06-20T12:42:41.718Z,100438.28
2019-06-20T12:43:40.625Z,100438.58
2019-06-20T12:44:40.506Z,100436.28
2019-06-20T12:45:41.576Z,100439.18
2019-06-20T12:46:41.483Z,100436.62
2019-06-20T12:47:40.538Z,100440.2
2019-06-20T12:48:41.556Z,100441.15
2019-06-20T12:49:40.548Z,100439.21
2019-06-20T12:50:41.828Z,100438.68
2019-06-20T12:51:40.844Z,100442.18
2019-06-20T12:52:41.146Z,100436.55
2019-06-20T12:53:40.777Z,100440.25
2019-06-20T12:54:41.953Z,100441.5
2019-06-20T12:55:41.056Z,100438.98
2019-06-20T12:56:40.667Z,100438.66
2019-06-20T12:57:40.825Z,100439.74
2019-06-20T12:58:41.015Z,100439.83
2019-06-20T12:59:41.285Z,100439.62
2019-06-20T13:00:41.571Z,100440.23
2019-06-20T13:01:44.802Z,100442.71
2019-06-20T13:02:42.318Z,100440.39
2019-06-20T13:03:41.604Z,100445.51
2019-06-20T13:04:40.541Z,100442.6
2019-06-20T13:05:41.773Z,100441.6
2019-06-20T13:06:41.028Z,100441.4
2019-06-20T13:07:40.982Z,100440.28
2019-06-20T13:08:42.229Z,100446.45
2019-06-20T13:09:41.038Z,100445.82
2019-06-20T13:10:40.669Z,100447.45
2019-06-20T13:11:41.411Z,100449.06
2019-06-20T13:12:43.042Z,100445.2
2019-06-20T13:13:41.065Z,100448.68
2019-06-20T13:14:41.470Z,100443.55
2019-06-20T13:15:41.230Z,100442.43
2019-06-20T13:16:41.536Z,100444.58
2019-06-20T13:17:41.793Z,100439.15
2019-06-20T13:18:43.043Z,100444.32
2019-06-20T13:19:40.820Z,100445.56
2019-06-20T13:20:41.084Z,100444.89
2019-06-20T13:21:40.887Z,100439.41
2019-06-20T13:22:41.263Z,100440.68
2019-06-20T13:23:41.876Z,100443.84
2019-06-20T13:24:41.549Z,100448.14
2019-06-20T13:25:41.281Z,100442.72
2019-06-20T13:26:42.737Z,100445.69
2019-06-20T13:27:42.090Z,100448.39
2019-06-20T13:29:41.555Z,100451.67
2019-06-20T13:30:42.759Z,100462.26
2019-06-20T13:32:41.957Z,100449.26
2019-06-20T13:33:41.237Z,100454.28
2019-06-20T13:34:41.551Z,100457
2019-06-20T13:35:42.253Z,100458.96
2019-06-20T13:36:41.523Z,100460.64
2019-06-20T13:37:41.989Z,100463.02
2019-06-20T13:38:41.475Z,100459.46
2019-06-20T13:39:41.911Z,100457.42
2019-06-20T13:40:41.894Z,100461.12
2019-06-20T13:41:41.906Z,100457.15
2019-06-20T13:42:42.572Z,100463.62
2019-06-20T13:44:14.802Z,100460.03
2019-06-20T13:44:42.887Z,100462.34
2019-06-20T13:45:43.316Z,100459.67
2019-06-20T13:46:43.263Z,100466.81
2019-06-20T13:47:41.897Z,100460.85
2019-06-20T13:48:42.576Z,100466.24
2019-06-20T13:49:42.104Z,100465.09
2019-06-20T13:50:42.245Z,100468.17
2019-06-20T13:51:42.238Z,100471.48
2019-06-20T13:52:43.449Z,100475.42
2019-06-20T13:53:42.962Z,100472.59
2019-06-20T13:54:43.364Z,100474.74
2019-06-20T13:55:42.786Z,100477.68
2019-06-20T13:56:46.227Z,100471.62
2019-06-20T13:57:43.447Z,100475.6
2019-06-20T13:58:43.478Z,100473.56
2019-06-20T13:59:44.255Z,100466.23
2019-06-20T14:00:46.443Z,100471.24
2019-06-20T14:01:43.923Z,100471.79
2019-06-20T14:02:43.229Z,100478.42
2019-06-20T14:03:43.969Z,100477.92
2019-06-20T14:04:43.206Z,100478.78
2019-06-20T14:05:43.722Z,100478.28
2019-06-20T14:06:44.228Z,100481.76
2019-06-20T14:07:48.078Z,100481
2019-06-20T14:08:44.696Z,100475.57
2019-06-20T14:09:45.207Z,100478.12
2019-06-20T14:10:46.427Z,100478.53
2019-06-20T14:11:43.964Z,100474.67
2019-06-20T14:12:43.378Z,100471.66
2019-06-20T14:13:46.050Z,100470.95
2019-06-20T14:14:44.488Z,100464.56
2019-06-20T14:15:44.758Z,100462.39
2019-06-20T14:16:43.535Z,100464.57
2019-06-20T14:17:43.557Z,100470.26
2019-06-20T14:18:44.853Z,100465.57
2019-06-20T14:19:45.414Z,100470.52
2019-06-20T14:20:45.386Z,100468.93
2019-06-20T14:21:46.013Z,100471.8
2019-06-20T14:22:47.693Z,100470.95
2019-06-20T14:23:44.630Z,100471.48
2019-06-20T14:24:46.476Z,100472.43
2019-06-20T14:25:47.524Z,100472.81
2019-06-20T14:26:49.353Z,100472.21
2019-06-20T14:27:47.212Z,100474.42
2019-06-20T14:28:44.754Z,100468.84
2019-06-20T14:29:45.338Z,100468.77
2019-06-20T14:30:46.897Z,100467.51
2019-06-20T14:31:45.903Z,100468.39
2019-06-20T14:32:47.932Z,100469.88
2019-06-20T14:33:44.877Z,100472.51
2019-06-20T14:34:46.007Z,100476.14
2019-06-20T14:35:45.990Z,100475.64
2019-06-20T14:36:46.614Z,100474.28
2019-06-20T14:37:45.972Z,100477
2019-06-20T14:38:46.162Z,100470.72
2019-06-20T14:39:51.429Z,100475.32
2019-06-20T14:40:46.359Z,100470.2
2019-06-20T14:41:45.168Z,100473.89
2019-06-20T14:42:46.326Z,100472.78
2019-06-20T14:43:46.468Z,100471.87
2019-06-20T14:44:46.374Z,100470.41
2019-06-20T14:45:45.455Z,100465.89
2019-06-20T14:48:02.804Z,100475.92
2019-06-20T14:48:47.120Z,100476.01
2019-06-20T14:50:46.258Z,100476.52
2019-06-20T14:51:47.079Z,100471.28
2019-06-20T14:52:46.551Z,100479.37
2019-06-20T14:53:46.027Z,100480.68
2019-06-20T14:54:46.256Z,100482.68
2019-06-20T14:55:46.436Z,100490.71
2019-06-20T14:56:46.529Z,100490.47
2019-06-20T14:57:46.912Z,100493.96
2019-06-20T14:58:47.570Z,100494.78
2019-06-20T14:59:46.910Z,100495.23
2019-06-20T15:00:46.890Z,100497.01
2019-06-20T15:01:46.777Z,100496.89
2019-06-20T15:02:47.592Z,100499.22
2019-06-20T15:03:47.678Z,100501.95
2019-06-20T15:04:46.610Z,100500.39
2019-06-20T15:05:46.964Z,100498.53
2019-06-20T15:06:47.141Z,100496.42
2019-06-20T15:07:47.711Z,100495.9
2019-06-20T15:08:47.508Z,100495.42
2019-06-20T15:09:48.008Z,100496.54
2019-06-20T15:10:48.922Z,100496.77
2019-06-20T15:11:48.151Z,100495.04
2019-06-20T15:12:48.226Z,100498.9
2019-06-20T15:13:48.001Z,100497.57
2019-06-20T15:14:48.242Z,100500.53
2019-06-20T15:15:48.273Z,100499.39
2019-06-20T15:16:48.280Z,100501.35
2019-06-20T15:17:50.195Z,100506.85
2019-06-20T15:18:50.092Z,100508.27
2019-06-20T15:19:48.265Z,100511.46
2019-06-20T15:20:48.663Z,100509.07
2019-06-20T15:21:48.888Z,100508.24
2019-06-20T15:22:49.196Z,100507.59
2019-06-20T15:23:49.457Z,100504.53
2019-06-20T15:24:50.275Z,100506.7
2019-06-20T15:25:49.061Z,100505.7
2019-06-20T15:26:49.343Z,100505.54
2019-06-20T15:27:50.063Z,100500.51
2019-06-20T15:28:49.676Z,100502.68
2019-06-20T15:29:49.200Z,100501.46
2019-06-20T15:30:49.352Z,100501.96
2019-06-20T15:31:49.297Z,100501.5
2019-06-20T15:33:50.004Z,100503.01
2019-06-20T15:34:49.878Z,100501.2
2019-06-20T15:35:51.076Z,100501.34
2019-06-20T15:36:50.166Z,100500.01
2019-06-20T15:37:50.130Z,100498.87
2019-06-20T15:38:49.784Z,100499.78
2019-06-20T15:39:50.209Z,100493.28
2019-06-20T15:40:50.204Z,100498.1
2019-06-20T15:41:50.504Z,100494.14
2019-06-20T15:42:51.487Z,100497.03
2019-06-20T15:43:50.256Z,100498.35
2019-06-20T15:44:50.495Z,100500.23
2019-06-20T15:45:50.695Z,100498.54
